Time;durP1;ratioP1;P1;durP2;ratioP2;P2;SDS_P1;SDS_P2;PMS_P1;PMS_P2;Temp;Humidity;BMP_temperature;BMP_pressure;BME280_temperature;BME280_humidity;BME280_pressure;Samples;Min_cycle;Max_cycle;Signal;HPM_P1;HPM_P2
2022/05/12 00:01:17;;;;;;;4.88;2.22;;;10.80;84.80;;;;;;5092755;28;20927;-71
2022/05/12 00:03:45;;;;;;;7.45;2.50;;;10.80;84.70;;;;;;5092528;28;20044;-70
2022/05/12 00:06:11;;;;;;;3.65;2.20;;;10.80;84.40;;;;;;5091145;28;20487;-70
2022/05/12 00:08:36;;;;;;;3.58;2.42;;;10.70;84.70;;;;;;5092276;28;20052;-70
2022/05/12 00:11:03;;;;;;;7.68;2.45;;;10.70;84.80;;;;;;5092046;28;20102;-71
2022/05/12 00:13:29;;;;;;;10.50;5.22;;;10.60;84.60;;;;;;5091109;28;20087;-70
2022/05/12 00:15:55;;;;;;;4.10;2.22;;;10.60;84.70;;;;;;5092478;28;20078;-70
2022/05/12 00:18:21;;;;;;;4.28;2.40;;;10.60;84.70;;;;;;5092348;28;20058;-70
2022/05/12 00:20:47;;;;;;;4.50;2.30;;;10.60;84.80;;;;;;5090625;28;20044;-71
2022/05/12 00:23:13;;;;;;;5.78;2.30;;;10.60;84.80;;;;;;5092231;28;20036;-71
2022/05/12 00:25:40;;;;;;;6.10;2.30;;;10.60;85.00;;;;;;5090919;28;20051;-71
2022/05/12 00:28:07;;;;;;;3.75;2.50;;;10.60;84.90;;;;;;5092114;28;20044;-71
2022/05/12 00:30:33;;;;;;;6.55;2.72;;;10.60;84.90;;;;;;5091796;28;20493;-69
2022/05/12 00:32:58;;;;;;;7.55;2.75;;;10.60;85.00;;;;;;5090732;28;20042;-70
2022/05/12 00:35:24;;;;;;;5.82;2.40;;;10.60;84.90;;;;;;5092011;28;20438;-69
2022/05/12 00:37:50;;;;;;;5.15;2.45;;;10.60;84.90;;;;;;5090501;28;20101;-69
2022/05/12 00:40:16;;;;;;;2.83;2.50;;;10.50;85.00;;;;;;5091974;28;20044;-70
2022/05/12 00:43:03;;;;;;;4.82;2.70;;;10.50;85.00;;;;;;5090591;28;20048;-70
2022/05/12 00:45:32;;;;;;;5.25;2.85;;;10.60;84.90;;;;;;5091265;28;20050;-70
2022/05/12 00:47:58;;;;;;;5.90;3.03;;;10.60;85.00;;;;;;5091534;28;20445;-70
2022/05/12 00:50:30;;;;;;;7.05;2.85;;;10.50;85.10;;;;;;5091888;28;20048;-70
2022/05/12 00:52:59;;;;;;;7.60;2.75;;;10.60;85.20;;;;;;5091755;28;20043;-70
2022/05/12 00:55:31;;;;;;;4.85;2.70;;;10.50;85.20;;;;;;5091713;28;20040;-70
2022/05/12 00:58:00;;;;;;;6.70;3.03;;;10.50;85.20;;;;;;5089961;28;20416;-71
2022/05/12 01:00:26;;;;;;;6.68;3.10;;;10.50;85.50;;;;;;5091530;28;20673;-71
2022/05/12 01:02:56;;;;;;;7.63;3.70;;;10.40;85.90;;;;;;5091469;28;20039;-71
2022/05/12 01:05:24;;;;;;;5.85;3.28;;;10.50;85.70;;;;;;5091076;28;20047;-71
2022/05/12 01:07:55;;;;;;;5.60;2.97;;;10.40;86.00;;;;;;5090529;28;20047;-71
2022/05/12 01:10:23;;;;;;;9.93;3.60;;;10.40;86.00;;;;;;5091210;28;20040;-71
2022/05/12 01:12:49;;;;;;;4.35;3.45;;;10.40;86.20;;;;;;5091220;28;20063;-71
2022/05/12 01:15:17;;;;;;;7.28;3.38;;;10.30;86.30;;;;;;5091265;28;20052;-71
2022/05/12 01:17:43;;;;;;;10.68;3.78;;;10.40;86.50;;;;;;5090848;28;20046;-71
2022/05/12 01:20:11;;;;;;;11.60;3.92;;;10.40;86.30;;;;;;5091184;28;20048;-71
2022/05/12 01:23:12;;;;;;;8.95;4.00;;;10.40;86.40;;;;;;5089773;28;20499;-71
2022/05/12 01:25:37;;;;;;;9.88;3.38;;;10.40;86.70;;;;;;5086818;28;20154;-71
2022/05/12 01:28:04;;;;;;;7.25;3.40;;;10.30;86.90;;;;;;5089731;28;20122;-71
2022/05/12 01:30:30;;;;;;;7.65;4.00;;;10.30;87.10;;;;;;5090633;28;20056;-71
2022/05/12 01:32:55;;;;;;;12.55;3.90;;;10.30;87.20;;;;;;5090926;28;20052;-71
2022/05/12 01:35:24;;;;;;;9.57;4.30;;;10.30;87.10;;;;;;5090778;28;20117;-71
2022/05/12 01:37:50;;;;;;;7.53;3.97;;;10.30;87.10;;;;;;5090670;28;20047;-71
2022/05/12 01:40:20;;;;;;;8.52;3.60;;;10.30;87.10;;;;;;5090476;28;20036;-71
2022/05/12 01:42:45;;;;;;;15.85;5.07;;;10.30;87.20;;;;;;5089356;28;20062;-71
2022/05/12 01:45:11;;;;;;;10.48;3.90;;;10.40;87.20;;;;;;5090603;28;20132;-71
2022/05/12 01:47:38;;;;;;;12.75;3.67;;;10.30;87.20;;;;;;5090714;28;20071;-71
2022/05/12 01:50:06;;;;;;;9.23;3.70;;;10.30;87.30;;;;;;5090634;28;20067;-71
2022/05/12 01:52:31;;;;;;;10.45;4.13;;;10.30;87.30;;;;;;5071939;28;20100;-71
2022/05/12 01:54:57;;;;;;;10.77;3.72;;;10.30;87.40;;;;;;5090442;28;20052;-71
2022/05/12 01:57:22;;;;;;;12.35;4.15;;;10.40;87.40;;;;;;5090436;28;20499;-71
2022/05/12 01:59:49;;;;;;;9.77;3.72;;;10.30;87.50;;;;;;5090300;28;20040;-70
2022/05/12 02:02:15;;;;;;;17.95;3.75;;;10.30;87.60;;;;;;5090239;28;20079;-71
2022/05/12 02:04:41;;;;;;;6.57;3.55;;;10.40;87.60;;;;;;5090224;28;20044;-70
2022/05/12 02:07:07;;;;;;;10.50;3.33;;;10.30;87.70;;;;;;5090001;28;20420;-70
2022/05/12 02:09:33;;;;;;;11.57;4.38;;;10.30;87.60;;;;;;5088728;28;20465;-70
2022/05/12 02:11:58;;;;;;;7.85;4.00;;;10.30;87.70;;;;;;5090105;28;20109;-70
2022/05/12 02:14:24;;;;;;;12.98;3.85;;;10.40;87.50;;;;;;5090019;28;20085;-70
2022/05/12 02:16:50;;;;;;;12.95;4.30;;;10.30;87.40;;;;;;5089599;28;20087;-70
2022/05/12 02:19:16;;;;;;;10.07;4.13;;;10.30;87.60;;;;;;5089952;28;20082;-70
2022/05/12 02:21:41;;;;;;;12.73;3.78;;;10.40;87.70;;;;;;5089669;28;20209;-69
2022/05/12 02:24:07;;;;;;;13.73;4.47;;;10.30;87.50;;;;;;5089981;28;20566;-70
2022/05/12 02:26:33;;;;;;;10.60;4.30;;;10.40;87.60;;;;;;5089558;28;20062;-70
2022/05/12 02:28:59;;;;;;;17.05;5.10;;;10.40;87.70;;;;;;5090040;28;20189;-70
2022/05/12 02:31:24;;;;;;;11.82;4.45;;;10.40;87.60;;;;;;5088521;28;20044;-70
2022/05/12 02:33:50;;;;;;;12.60;5.63;;;10.40;87.70;;;;;;5089676;28;20097;-70
2022/05/12 02:36:16;;;;;;;15.23;5.25;;;10.40;87.70;;;;;;5089397;28;20047;-70
2022/05/12 02:38:42;;;;;;;7.97;4.25;;;10.40;87.70;;;;;;5089570;28;20150;-70
2022/05/12 02:41:07;;;;;;;10.95;4.85;;;10.40;87.80;;;;;;5089611;28;20044;-70
2022/05/12 02:43:33;;;;;;;11.50;5.82;;;10.40;87.90;;;;;;5089497;28;20393;-70
2022/05/12 02:46:05;;;;;;;14.38;4.68;;;10.40;87.80;;;;;;5089666;28;20052;-70
2022/05/12 02:48:34;;;;;;;12.45;5.43;;;10.50;88.00;;;;;;5089347;28;20082;-70
2022/05/12 02:51:00;;;;;;;11.70;4.78;;;10.50;88.10;;;;;;5087938;28;20134;-70
2022/05/12 02:53:28;;;;;;;16.30;5.65;;;10.50;87.90;;;;;;5089572;28;20136;-70
2022/05/12 02:55:54;;;;;;;12.80;5.28;;;10.50;88.00;;;;;;5088467;28;20388;-71
2022/05/12 02:58:20;;;;;;;10.60;4.93;;;10.50;88.00;;;;;;5088243;28;20044;-70
2022/05/12 03:00:49;;;;;;;12.95;4.93;;;10.50;88.10;;;;;;5089429;28;20044;-71
2022/05/12 03:03:15;;;;;;;11.77;5.15;;;10.40;88.30;;;;;;5089395;28;20518;-71
2022/05/12 03:05:41;;;;;;;9.13;5.13;;;10.40;88.20;;;;;;5089377;28;20044;-71
2022/05/12 03:08:08;;;;;;;15.23;5.47;;;10.40;88.20;;;;;;5089293;28;20074;-70
2022/05/12 03:10:34;;;;;;;13.57;4.75;;;10.40;88.20;;;;;;5089268;28;20412;-71
2022/05/12 03:13:00;;;;;;;12.27;4.90;;;10.40;88.20;;;;;;5088542;28;20454;-71
2022/05/12 03:15:27;;;;;;;9.75;5.10;;;10.40;88.10;;;;;;5089219;28;20047;-70
2022/05/12 03:17:52;;;;;;;11.45;5.22;;;10.40;88.10;;;;;;5087844;28;20040;-70
2022/05/12 03:20:22;;;;;;;9.70;4.82;;;10.40;88.30;;;;;;5089492;28;20040;-71
2022/05/12 03:22:48;;;;;;;15.20;5.45;;;10.50;88.40;;;;;;5089391;28;20048;-70
2022/05/12 03:25:16;;;;;;;9.30;5.05;;;10.50;88.40;;;;;;5088419;28;20092;-70
2022/05/12 03:27:42;;;;;;;14.00;6.25;;;10.50;88.50;;;;;;5089383;28;20745;-70
2022/05/12 03:30:12;;;;;;;11.77;5.22;;;10.40;88.50;;;;;;5091216;28;20157;-70
2022/05/12 03:32:37;;;;;;;8.95;4.50;;;10.50;88.60;;;;;;5092843;28;20450;-70
2022/05/12 03:35:04;;;;;;;9.38;6.03;;;10.50;88.50;;;;;;5093376;28;20055;-70
2022/05/12 03:37:30;;;;;;;10.57;5.75;;;10.50;88.50;;;;;;5091752;28;20044;-70
2022/05/12 03:39:55;;;;;;;11.80;4.32;;;10.50;88.40;;;;;;5093098;28;20040;-70
2022/05/12 03:42:21;;;;;;;7.32;4.40;;;10.50;88.50;;;;;;5092953;28;20401;-70
2022/05/12 03:44:46;;;;;;;10.20;5.57;;;10.40;88.50;;;;;;5091830;28;20385;-70
2022/05/12 03:47:27;;;;;;;12.38;5.18;;;10.40;88.40;;;;;;5092481;28;20048;-70
2022/05/12 03:49:59;;;;;;;13.05;4.70;;;10.50;88.30;;;;;;5091528;28;20050;-70
2022/05/12 03:52:25;;;;;;;10.80;4.13;;;10.50;88.40;;;;;;5091757;28;20051;-70
2022/05/12 03:54:51;;;;;;;12.00;4.60;;;10.50;88.30;;;;;;5092722;28;20059;-70
2022/05/12 03:57:18;;;;;;;10.07;4.32;;;10.50;88.30;;;;;;5091258;28;20444;-70
2022/05/12 03:59:43;;;;;;;14.82;5.35;;;10.50;88.40;;;;;;5092504;28;20044;-70
2022/05/12 04:02:13;;;;;;;7.85;4.28;;;10.60;88.30;;;;;;5092531;28;20101;-70
2022/05/12 04:04:40;;;;;;;10.32;4.50;;;10.60;88.20;;;;;;5092506;28;20052;-70
2022/05/12 04:07:06;;;;;;;10.02;4.95;;;10.60;88.10;;;;;;5092949;28;20093;-70
2022/05/12 04:09:32;;;;;;;16.77;4.85;;;10.50;88.20;;;;;;5092346;28;20047;-70
2022/05/12 04:11:58;;;;;;;6.80;4.28;;;10.50;88.10;;;;;;5092064;28;20048;-71
2022/05/12 04:14:24;;;;;;;8.95;4.47;;;10.50;88.00;;;;;;5090966;28;20044;-71
2022/05/12 04:16:49;;;;;;;9.07;4.55;;;10.50;88.00;;;;;;5092410;28;20465;-70
2022/05/12 04:19:15;;;;;;;9.93;4.30;;;10.50;88.00;;;;;;5092135;28;20044;-70
2022/05/12 04:21:40;;;;;;;9.55;4.72;;;10.50;87.90;;;;;;5090502;28;20036;-71
2022/05/12 04:24:07;;;;;;;10.82;4.50;;;10.50;87.90;;;;;;5092088;28;20071;-71
2022/05/12 04:26:35;;;;;;;8.70;4.78;;;10.60;87.90;;;;;;5092148;28;20506;-70
2022/05/12 04:29:01;;;;;;;7.80;4.13;;;10.60;88.00;;;;;;5092371;28;20123;-71
2022/05/12 04:31:27;;;;;;;19.85;5.75;;;10.60;88.00;;;;;;5090614;28;20135;-71
2022/05/12 04:36:37;;;;;;;11.38;4.90;;;10.60;87.80;;;;;;5091584;28;20047;-71
2022/05/12 04:39:06;;;;;;;8.57;4.05;;;10.60;88.00;;;;;;5091449;28;20046;-70
2022/05/12 04:41:32;;;;;;;9.30;4.28;;;10.60;87.90;;;;;;5091855;28;20044;-70
2022/05/12 04:43:58;;;;;;;8.27;4.50;;;10.60;88.00;;;;;;5091991;28;20044;-70
2022/05/12 04:46:26;;;;;;;9.98;4.20;;;10.60;87.90;;;;;;5091649;28;20117;-71
2022/05/12 04:48:52;;;;;;;14.48;6.00;;;10.70;87.90;;;;;;5091267;28;20844;-71
2022/05/12 04:51:18;;;;;;;9.77;4.07;;;10.70;88.00;;;;;;5091564;28;20044;-71
2022/05/12 04:53:44;;;;;;;7.43;4.40;;;10.80;88.00;;;;;;5091534;28;20120;-70
2022/05/12 04:56:10;;;;;;;6.88;4.30;;;10.80;88.00;;;;;;5091536;28;20048;-70
2022/05/12 04:58:35;;;;;;;11.93;3.92;;;10.80;88.00;;;;;;5091344;28;20043;-70
2022/05/12 05:01:01;;;;;;;9.27;3.90;;;10.90;88.00;;;;;;5091375;28;20092;-70
2022/05/12 05:03:27;;;;;;;8.07;3.40;;;10.90;88.10;;;;;;5089766;28;20090;-71
2022/05/12 05:05:52;;;;;;;13.40;4.43;;;11.00;88.10;;;;;;5091387;28;20420;-70
2022/05/12 05:08:21;;;;;;;9.80;4.00;;;11.00;88.00;;;;;;5091183;28;20043;-70
2022/05/12 05:10:48;;;;;;;9.93;4.07;;;11.10;87.90;;;;;;5090805;28;20103;-70
2022/05/12 05:13:14;;;;;;;13.98;5.28;;;11.10;88.00;;;;;;5091191;28;20687;-71
2022/05/12 05:15:40;;;;;;;8.18;4.63;;;11.10;88.00;;;;;;5089833;28;20082;-70
2022/05/12 05:18:10;;;;;;;9.20;3.55;;;11.20;88.00;;;;;;5073101;28;20173;-71
2022/05/12 05:20:36;;;;;;;11.13;4.13;;;11.30;87.90;;;;;;5090866;28;20044;-70
2022/05/12 05:23:02;;;;;;;13.52;5.13;;;11.20;88.00;;;;;;5091072;28;20061;-70
2022/05/12 05:25:27;;;;;;;9.55;4.50;;;11.30;87.90;;;;;;5090765;28;20404;-69
2022/05/12 05:27:55;;;;;;;8.15;3.78;;;11.40;87.90;;;;;;5089842;28;20082;-70
2022/05/12 05:30:23;;;;;;;12.10;4.00;;;11.40;88.10;;;;;;5090882;28;20040;-70
2022/05/12 05:32:48;;;;;;;12.48;4.15;;;11.50;87.90;;;;;;5089523;28;20044;-70
2022/05/12 05:35:14;;;;;;;19.02;5.75;;;11.50;87.80;;;;;;5090961;28;20055;-70
2022/05/12 05:37:42;;;;;;;9.30;3.55;;;11.60;87.70;;;;;;5090150;28;20048;-70
2022/05/12 05:40:09;;;;;;;13.45;3.92;;;11.60;87.60;;;;;;5090584;28;20043;-70
2022/05/12 05:42:35;;;;;;;10.55;3.40;;;11.70;87.50;;;;;;5090382;28;20055;-70
2022/05/12 05:45:08;;;;;;;9.68;3.33;;;11.80;87.30;;;;;;5090629;28;20050;-70
2022/05/12 05:47:34;;;;;;;10.98;3.33;;;11.80;87.40;;;;;;5090532;28;20043;-70
2022/05/12 05:50:00;;;;;;;12.20;4.15;;;11.90;87.30;;;;;;5090542;28;20067;-70
2022/05/12 05:55:10;;;;;;;12.18;3.92;;;12.00;87.20;;;;;;5090261;28;20052;-70
2022/05/12 05:57:36;;;;;;;12.40;3.20;;;12.10;87.20;;;;;;5090579;28;20104;-69
2022/05/12 06:00:05;;;;;;;12.05;3.67;;;12.10;87.20;;;;;;5090398;28;20052;-69
2022/05/12 06:02:31;;;;;;;16.73;4.45;;;12.20;87.10;;;;;;5090148;28;20098;-70
2022/05/12 06:04:57;;;;;;;9.23;3.30;;;12.30;86.90;;;;;;5090297;28;20036;-70
2022/05/12 06:07:23;;;;;;;17.33;3.65;;;12.30;86.70;;;;;;5089854;28;20044;-70
2022/05/12 06:09:49;;;;;;;15.32;4.50;;;12.40;86.80;;;;;;5089908;28;20142;-69
2022/05/12 06:12:14;;;;;;;12.82;4.72;;;12.50;86.80;;;;;;5088656;28;20131;-70
2022/05/12 06:14:40;;;;;;;13.40;3.85;;;12.50;86.50;;;;;;5089923;28;20373;-70
2022/05/12 06:17:06;;;;;;;12.40;3.65;;;12.50;86.30;;;;;;5089868;28;20079;-70
2022/05/12 06:19:32;;;;;;;11.80;3.20;;;12.60;86.40;;;;;;5088763;28;20100;-70
2022/05/12 06:21:57;;;;;;;12.55;4.25;;;12.60;86.20;;;;;;5089990;28;20442;-69
2022/05/12 06:24:23;;;;;;;13.45;3.28;;;12.60;85.90;;;;;;5089843;28;20040;-70
2022/05/12 06:26:49;;;;;;;12.00;3.55;;;12.70;85.00;;;;;;5089719;28;20051;-69
2022/05/12 06:29:15;;;;;;;15.55;3.92;;;12.70;85.10;;;;;;5089691;28;20043;-69
2022/05/12 06:31:42;;;;;;;13.68;3.00;;;12.80;84.90;;;;;;5089455;28;20564;-68
2022/05/12 06:34:07;;;;;;;17.92;4.07;;;12.80;84.20;;;;;;5089413;28;20075;-70
2022/05/12 06:36:33;;;;;;;15.98;4.03;;;12.90;84.20;;;;;;5089609;28;20083;-70
2022/05/12 06:38:59;;;;;;;17.58;3.75;;;12.90;84.00;;;;;;5089543;28;20040;-69
2022/05/12 06:41:26;;;;;;;9.13;3.25;;;13.00;84.00;;;;;;5089131;28;20052;-69
2022/05/12 06:43:52;;;;;;;16.35;3.17;;;13.00;83.70;;;;;;5089765;28;20093;-69
2022/05/12 06:46:20;;;;;;;8.30;3.25;;;13.10;83.70;;;;;;5089564;28;20051;-70
2022/05/12 06:48:50;;;;;;;23.45;4.13;;;13.10;82.80;;;;;;5089266;28;20055;-69
2022/05/12 06:51:17;;;;;;;16.13;3.42;;;13.20;83.00;;;;;;5089291;28;20040;-69
2022/05/12 06:53:43;;;;;;;13.55;4.40;;;13.20;82.50;;;;;;5089549;28;20048;-70
2022/05/12 06:56:09;;;;;;;14.25;3.42;;;13.30;82.10;;;;;;5089196;28;20110;-70
2022/05/12 06:58:36;;;;;;;13.18;2.83;;;13.30;80.80;;;;;;5089599;28;20075;-70
2022/05/12 07:01:03;;;;;;;9.07;3.00;;;13.20;81.50;;;;;;5089517;28;20040;-70
2022/05/12 07:03:29;;;;;;;7.10;3.08;;;13.30;81.00;;;;;;5088978;28;20400;-69
2022/05/12 07:05:55;;;;;;;14.45;3.10;;;13.30;80.40;;;;;;5092984;28;20496;-69
2022/05/12 07:08:21;;;;;;;13.35;3.92;;;13.40;80.10;;;;;;5093497;28;20052;-69
2022/05/12 07:10:47;;;;;;;13.23;3.22;;;13.40;80.50;;;;;;5093174;28;20417;-70
2022/05/12 07:13:19;;;;;;;10.57;2.83;;;13.40;80.20;;;;;;5093549;28;20047;-70
2022/05/12 07:15:47;;;;;;;16.08;3.13;;;13.50;80.20;;;;;;5093225;28;20062;-70
2022/05/12 07:18:14;;;;;;;11.00;2.50;;;13.50;79.40;;;;;;5092031;28;20040;-69
2022/05/12 07:28:53;;;;;;;14.10;2.72;;;13.60;78.80;;;;;;5093150;28;20084;-70
2022/05/12 07:31:18;;;;;;;10.18;2.88;;;13.70;78.50;;;;;;5091614;28;20078;-69
2022/05/12 07:33:46;;;;;;;17.17;3.05;;;13.70;78.00;;;;;;5093454;28;20044;-69
2022/05/12 07:36:27;;;;;;;7.28;2.05;;;13.80;78.60;;;;;;5093262;28;20043;-70
2022/05/12 07:38:57;;;;;;;17.45;4.32;;;13.80;78.70;;;;;;5093014;28;20094;-70
2022/05/12 07:41:24;;;;;;;15.50;3.72;;;13.90;78.20;;;;;;5092438;28;20080;-69
2022/05/12 07:43:54;;;;;;;17.08;3.47;;;13.90;78.20;;;;;;5093147;28;20040;-69
2022/05/12 07:46:25;;;;;;;12.32;3.00;;;14.00;77.70;;;;;;5093170;28;20729;-69
2022/05/12 07:48:51;;;;;;;8.80;2.67;;;14.00;76.60;;;;;;5091623;28;20451;-70
2022/05/12 07:51:18;;;;;;;11.52;2.55;;;14.00;76.50;;;;;;5091447;28;20070;-71
2022/05/12 07:53:47;;;;;;;7.15;2.55;;;14.10;76.60;;;;;;5092797;28;20052;-70
2022/05/12 07:56:14;;;;;;;9.90;3.13;;;14.10;76.90;;;;;;5092810;28;20040;-70
2022/05/12 07:58:39;;;;;;;13.18;2.72;;;14.20;76.80;;;;;;5092493;28;20044;-70
2022/05/12 08:01:05;;;;;;;12.43;2.65;;;14.20;76.10;;;;;;5092104;28;20055;-70
2022/05/12 08:03:31;;;;;;;16.27;2.97;;;14.20;75.10;;;;;;5092266;28;20032;-70
2022/05/12 08:05:58;;;;;;;17.25;3.55;;;14.20;74.70;;;;;;5092600;28;20044;-70
2022/05/12 08:08:24;;;;;;;7.35;2.17;;;14.20;73.50;;;;;;5092368;28;20079;-70
2022/05/12 08:10:49;;;;;;;5.38;2.25;;;14.30;73.50;;;;;;5090475;28;20110;-70
2022/05/12 08:13:16;;;;;;;13.50;4.47;;;14.30;73.50;;;;;;5092363;28;20055;-70
2022/05/12 08:15:46;;;;;;;7.57;2.58;;;14.30;72.90;;;;;;5091746;28;20583;-70
2022/05/12 08:18:11;;;;;;;7.78;2.00;;;14.30;72.70;;;;;;5092194;28;20093;-70
2022/05/12 08:20:38;;;;;;;15.88;2.50;;;14.40;73.10;;;;;;5092129;28;20036;-70
2022/05/12 08:23:04;;;;;;;13.15;2.33;;;14.40;73.20;;;;;;5091889;28;20477;-70
2022/05/12 08:25:30;;;;;;;8.30;2.40;;;14.50;73.30;;;;;;5091993;28;20040;-70
2022/05/12 08:27:56;;;;;;;11.40;3.15;;;14.60;73.40;;;;;;5092015;28;20412;-70
2022/05/12 08:30:22;;;;;;;13.07;2.95;;;14.60;72.90;;;;;;5091802;28;20044;-70
2022/05/12 08:32:47;;;;;;;12.82;3.13;;;14.60;72.20;;;;;;5090628;28;20105;-70
2022/05/12 08:35:14;;;;;;;10.05;2.28;;;14.70;72.60;;;;;;5091750;28;20032;-70
2022/05/12 08:37:39;;;;;;;13.35;2.90;;;14.80;71.70;;;;;;5091837;28;20071;-70
2022/05/12 08:40:11;;;;;;;9.27;2.13;;;14.80;71.60;;;;;;5091600;28;20083;-71
2022/05/12 08:42:44;;;;;;;7.35;1.95;;;14.80;72.00;;;;;;5073396;28;20044;-69
2022/05/12 08:45:13;;;;;;;7.80;2.20;;;14.90;72.60;;;;;;5091477;28;20531;-69
2022/05/12 08:47:45;;;;;;;16.40;2.42;;;14.90;69.40;;;;;;5091832;28;20044;-70
2022/05/12 08:50:19;;;;;;;9.88;1.60;;;15.00;70.50;;;;;;5090706;28;20052;-70
2022/05/12 08:52:51;;;;;;;11.20;1.98;;;15.00;69.90;;;;;;5091616;28;20474;-70
2022/05/12 08:55:29;;;;;;;6.88;2.38;;;15.00;70.00;;;;;;5091183;28;20079;-70
2022/05/12 08:58:02;;;;;;;9.93;2.00;;;15.10;68.40;;;;;;5091570;28;20036;-70
2022/05/12 09:00:34;;;;;;;11.32;2.00;;;15.10;69.80;;;;;;5091438;28;20040;-70
2022/05/12 09:03:39;;;;;;;7.10;1.45;;;15.10;69.10;;;;;;5091525;28;20044;-70
2022/05/12 09:06:24;;;;;;;8.25;2.35;;;15.20;69.00;;;;;;5091700;28;20621;-70
2022/05/12 09:09:17;;;;;;;5.57;1.63;;;15.30;68.90;;;;;;5091298;28;20048;-70
2022/05/12 09:12:12;;;;;;;4.78;1.33;;;15.40;68.20;;;;;;5091116;28;20060;-69
2022/05/12 09:15:01;;;;;;;8.68;1.27;;;15.40;68.00;;;;;;5091339;28;20040;-69
2022/05/12 09:17:51;;;;;;;12.60;3.35;;;15.40;67.00;;;;;;5091208;28;20134;-70
2022/05/12 09:20:17;;;;;;;10.02;2.67;;;15.40;66.10;;;;;;5089985;28;20047;-70
2022/05/12 09:22:43;;;;;;;8.05;1.27;;;15.30;67.00;;;;;;5073036;28;20052;-69
2022/05/12 09:25:26;;;;;;;5.40;1.50;;;15.40;65.60;;;;;;5090956;28;20084;-69
2022/05/12 09:27:52;;;;;;;13.45;1.95;;;15.50;66.10;;;;;;5089898;28;20072;-69
2022/05/12 09:30:32;;;;;;;6.38;1.40;;;15.50;63.80;;;;;;5089765;28;20068;-70
2022/05/12 09:32:59;;;;;;;8.80;1.38;;;15.50;64.10;;;;;;5089576;28;20097;-71
2022/05/12 09:35:27;;;;;;;4.72;1.27;;;15.50;64.50;;;;;;5090810;28;20040;-69
2022/05/12 09:37:54;;;;;;;2.45;0.85;;;15.60;64.50;;;;;;5090209;28;20186;-68
2022/05/12 09:40:34;;;;;;;5.18;1.27;;;15.60;63.10;;;;;;5090466;28;20083;-69
2022/05/12 09:43:17;;;;;;;4.15;1.00;;;15.60;61.80;;;;;;5090219;28;20505;-69
2022/05/12 09:45:43;;;;;;;5.75;1.20;;;15.50;61.20;;;;;;5090313;28;20048;-70
2022/05/12 09:48:24;;;;;;;6.53;1.17;;;15.60;62.40;;;;;;5090364;28;20062;-70
2022/05/12 09:50:50;;;;;;;7.20;1.45;;;15.60;61.60;;;;;;5090328;28;20127;-70
2022/05/12 09:53:25;;;;;;;6.88;1.83;;;15.60;62.50;;;;;;5090224;28;20149;-70
2022/05/12 09:56:09;;;;;;;7.40;1.95;;;15.60;62.30;;;;;;5090359;28;20173;-70
2022/05/12 09:58:38;;;;;;;4.15;1.00;;;15.60;62.00;;;;;;5090433;28;20088;-70
2022/05/12 10:01:24;;;;;;;7.35;1.05;;;15.60;62.10;;;;;;5089121;28;20051;-70
2022/05/12 10:09:29;;;;;;;10.80;1.23;;;15.80;61.20;;;;;;5090085;28;20053;-70
2022/05/12 10:12:14;;;;;;;6.28;1.17;;;15.90;60.90;;;;;;5090099;28;20059;-70
2022/05/12 10:14:57;;;;;;;1.67;0.60;;;15.80;61.00;;;;;;5089973;28;20051;-70
2022/05/12 10:17:23;;;;;;;3.17;1.17;;;15.70;60.90;;;;;;5089752;28;20048;-69
2022/05/12 10:19:50;;;;;;;8.60;0.90;;;15.90;62.20;;;;;;5090137;28;20480;-70
2022/05/12 10:22:30;;;;;;;7.03;1.30;;;15.90;62.40;;;;;;5089954;28;20055;-70
2022/05/12 10:25:17;;;;;;;5.05;1.10;;;15.90;62.10;;;;;;5089924;28;20036;-70
2022/05/12 10:28:02;;;;;;;3.97;1.15;;;16.00;62.50;;;;;;5089392;28;20044;-70
2022/05/12 10:30:42;;;;;;;3.13;1.20;;;16.00;62.20;;;;;;5089933;28;20094;-70
2022/05/12 10:33:23;;;;;;;4.35;1.08;;;15.90;61.50;;;;;;5089759;28;20062;-70
2022/05/12 10:36:23;;;;;;;4.37;1.33;;;16.10;61.30;;;;;;5089910;28;20091;-70
2022/05/12 10:38:51;;;;;;;4.18;1.13;;;16.20;60.80;;;;;;5087744;28;20070;-69
2022/05/12 10:41:22;;;;;;;4.03;1.20;;;16.20;60.40;;;;;;5089539;28;20044;-70
2022/05/12 10:44:07;;;;;;;5.68;1.30;;;16.20;60.00;;;;;;5089559;28;20492;-69
2022/05/12 10:46:41;;;;;;;3.90;1.17;;;16.20;60.40;;;;;;5089565;28;20048;-70
2022/05/12 10:49:25;;;;;;;7.32;1.20;;;16.10;60.40;;;;;;5088495;28;20093;-70
2022/05/12 10:52:01;;;;;;;6.50;2.38;;;16.20;59.50;;;;;;5089288;28;20044;-70
2022/05/12 10:54:58;;;;;;;3.38;0.90;;;16.30;60.30;;;;;;5089500;28;20189;-70
2022/05/12 10:58:19;;;;;;;4.15;1.13;;;16.30;60.10;;;;;;5089552;28;20143;-70
2022/05/12 11:01:07;;;;;;;5.78;1.85;;;16.30;59.30;;;;;;5086966;28;20129;-70
2022/05/12 11:04:00;;;;;;;3.80;1.00;;;16.30;61.20;;;;;;5089439;28;20080;-71
2022/05/12 11:06:31;;;;;;;7.13;1.42;;;16.40;60.60;;;;;;5089414;28;20104;-70
2022/05/12 11:09:02;;;;;;;;;;;16.50;60.20;;;;;;5089878;28;20048;-70
2022/05/12 11:11:45;;;;;;;6.25;1.30;;;16.40;59.50;;;;;;5089152;28;20428;-69
2022/05/12 11:14:39;;;;;;;4.55;1.15;;;16.50;59.60;;;;;;5089342;28;20050;-69
2022/05/12 11:17:08;;;;;;;6.72;1.30;;;16.50;59.60;;;;;;5088472;28;20425;-69
2022/05/12 11:19:35;;;;;;;8.52;1.20;;;16.70;60.80;;;;;;5087785;28;20407;-69
2022/05/12 11:22:07;;;;;;;8.27;1.58;;;16.80;60.90;;;;;;5089179;28;20044;-69
2022/05/12 11:25:29;;;;;;;5.72;1.45;;;16.90;59.60;;;;;;5088116;28;20131;-69
2022/05/12 11:31:32;;;;;;;7.72;2.17;;;17.10;58.30;;;;;;5089170;28;20059;-70
2022/05/12 11:34:05;;;;;;;4.68;1.30;;;16.90;58.80;;;;;;5088989;28;20090;-69
2022/05/12 11:36:38;;;;;;;6.25;1.52;;;16.60;59.70;;;;;;5089216;28;20077;-69
2022/05/12 11:39:22;;;;;;;6.15;1.85;;;16.70;58.90;;;;;;5089328;28;20036;-70
2022/05/12 11:41:48;;;;;;;6.22;1.38;;;16.90;58.90;;;;;;5089140;28;20048;-69
2022/05/12 11:44:26;;;;;;;4.07;1.60;;;17.10;59.40;;;;;;5089107;28;20039;-70
2022/05/12 11:47:17;;;;;;;8.02;1.48;;;17.20;57.30;;;;;;5088722;28;20056;-69
2022/05/12 11:49:51;;;;;;;8.65;1.55;;;17.10;56.70;;;;;;5089134;28;20056;-70
2022/05/12 11:53:01;;;;;;;13.18;1.90;;;17.10;55.90;;;;;;5091359;28;20569;-69
2022/05/12 11:55:52;;;;;;;4.63;1.13;;;17.10;55.90;;;;;;5091148;28;20069;-69
2022/05/12 11:58:40;;;;;;;6.13;1.50;;;17.20;57.30;;;;;;5092733;28;20040;-70
2022/05/12 12:01:27;;;;;;;4.55;1.30;;;17.40;55.40;;;;;;5092297;28;20378;-69
2022/05/12 12:04:01;;;;;;;5.10;0.98;;;17.50;55.40;;;;;;5092367;28;20143;-69
2022/05/12 12:06:45;;;;;;;4.80;1.23;;;17.40;54.50;;;;;;5092341;28;20099;-70
2022/05/12 12:09:33;;;;;;;6.47;2.10;;;17.50;54.00;;;;;;5091269;28;20048;-69
2022/05/12 12:11:59;;;;;;;7.57;0.95;;;17.50;53.10;;;;;;5091964;28;20055;-69
2022/05/12 12:14:55;;;;;;;4.75;1.20;;;17.50;53.10;;;;;;5092088;28;20086;-70
2022/05/12 12:17:36;;;;;;;4.22;1.38;;;17.60;54.40;;;;;;5087494;28;20134;-69
2022/05/12 12:20:33;;;;;;;5.07;1.35;;;17.40;53.80;;;;;;5092396;28;20046;-69
2022/05/12 12:23:17;;;;;;;5.38;1.17;;;17.30;53.50;;;;;;5092113;28;20134;-69
2022/05/12 12:25:45;;;;;;;4.53;1.10;;;17.40;53.30;;;;;;5091907;28;20143;-69
2022/05/12 12:28:48;;;;;;;3.88;1.40;;;17.50;53.70;;;;;;5091796;28;20052;-70
2022/05/12 12:31:28;;;;;;;5.43;1.60;;;17.40;54.10;;;;;;5092097;28;20083;-69
2022/05/12 12:34:11;;;;;;;6.78;1.40;;;17.20;54.60;;;;;;5091707;28;20044;-70
2022/05/12 12:36:37;;;;;;;3.75;1.23;;;17.30;55.10;;;;;;5091989;28;20047;-70
2022/05/12 12:39:12;;;;;;;3.88;0.95;;;17.40;54.70;;;;;;5091702;28;20111;-69
2022/05/12 12:41:41;;;;;;;5.53;1.13;;;17.50;54.50;;;;;;5091447;28;20144;-70
2022/05/12 12:44:14;;;;;;;6.22;1.40;;;17.60;53.30;;;;;;5091665;28;20044;-70
2022/05/12 12:47:07;;;;;;;4.13;1.15;;;17.70;52.90;;;;;;5091770;28;20083;-70
2022/05/12 12:49:57;;;;;;;4.45;0.95;;;17.70;52.60;;;;;;5091266;28;20043;-69
2022/05/12 12:52:23;;;;;;;4.25;0.82;;;17.50;52.00;;;;;;5091705;28;20481;-69
2022/05/12 12:57:44;;;;;;;7.68;2.25;;;17.60;53.40;;;;;;5090410;28;20059;-70
2022/05/12 13:00:23;;;;;;;4.05;0.82;;;17.60;53.40;;;;;;5090072;28;20048;-69
2022/05/12 13:02:57;;;;;;;4.18;1.13;;;17.60;53.10;;;;;;5091012;28;20048;-69
2022/05/12 13:05:24;;;;;;;7.57;1.25;;;17.60;52.10;;;;;;5091615;28;20495;-70
2022/05/12 13:08:03;;;;;;;5.35;1.38;;;17.70;51.60;;;;;;5091587;28;20429;-70
2022/05/12 13:10:40;;;;;;;4.47;0.90;;;17.90;53.20;;;;;;5090830;28;20056;-69
2022/05/12 13:13:06;;;;;;;3.60;1.05;;;17.90;52.30;;;;;;5091250;28;20052;-71
2022/05/12 13:15:35;;;;;;;5.90;1.65;;;18.00;52.70;;;;;;5091234;28;20481;-70
2022/05/12 13:18:05;;;;;;;2.60;0.77;;;17.90;51.70;;;;;;5091207;28;20051;-69
2022/05/12 13:20:40;;;;;;;4.05;1.77;;;17.70;52.30;;;;;;5090946;28;20044;-70
2022/05/12 13:23:10;;;;;;;7.32;1.60;;;17.50;52.50;;;;;;5090989;28;20043;-70
2022/05/12 13:25:40;;;;;;;4.72;1.13;;;17.50;53.10;;;;;;5090624;28;20097;-70
2022/05/12 13:28:11;;;;;;;7.25;1.52;;;17.50;51.90;;;;;;5073127;28;20056;-70